Hebron, Maryland
Current Conditions -  °F | °C
As of 12:54 AM on Saturday 20 Dec 2014 (Local Time) from KSBY Reporting Station
Clear Clear  
Wind Chill: 25°   Ceiling: Unl
Heat Index: 30°   Visibility: 10mi
Dew Point: 23°   Wind: 5mph
Humidity: 75%   Direction: 330°NNW
Pressure: 30.22"   Gusts: NA
Location:  38.42°N, 75.69°W
Report Text: KSBY 200554Z AUTO 33004KT 10SM CLR M01/M05 A3022 RMK AO2 SLP235 T10111050 10022 21017 50001
Loading
Personal Weather Stations






























Interactive Weather Map New forecast layout! Learn more

10-Day Weather Forecast

Advertisements
Track Severe Weather on mobile